Time;durP1;ratioP1;P1;durP2;ratioP2;P2;SDS_P1;SDS_P2;PMS_P1;PMS_P2;Temp;Humidity;BMP_temperature;BMP_pressure;BME280_temperature;BME280_humidity;BME280_pressure;Samples;Min_cycle;Max_cycle;Signal;HPM_P1;HPM_P2
2021/12/29 00:02:03;;;;;;;40.88;16.17;;;;;;;7.06;100.00;99919.41;5030870;28;20022;-91
2021/12/29 00:04:28;;;;;;;40.35;17.45;;;;;;;7.04;100.00;99924.78;5031197;28;20060;-90
2021/12/29 00:06:56;;;;;;;39.53;16.90;;;;;;;7.05;100.00;99937.06;5029414;28;20065;-89
2021/12/29 00:09:22;;;;;;;36.88;16.73;;;;;;;7.05;100.00;99936.22;5029266;28;20475;-90
2021/12/29 00:11:47;;;;;;;37.65;15.57;;;;;;;6.93;100.00;99913.88;5031095;28;20029;-90
2021/12/29 00:14:13;;;;;;;40.75;17.92;;;;;;;7.05;100.00;99936.22;5028233;28;20040;-88
2021/12/29 00:16:38;;;;;;;36.30;15.80;;;;;;;7.05;100.00;99947.66;5028767;28;20411;-88
2021/12/29 00:19:05;;;;;;;36.90;15.02;;;;;;;7.05;100.00;99967.97;5030909;28;20029;-88
2021/12/29 00:21:35;;;;;;;31.70;15.05;;;;;;;7.06;100.00;99982.91;5029399;28;20049;-88
2021/12/29 00:24:01;;;;;;;33.00;14.40;;;;;;;7.05;100.00;99994.44;5029511;28;20034;-89
2021/12/29 00:26:28;;;;;;;34.03;14.13;;;;;;;7.03;100.00;99997.16;5028382;28;20041;-90
2021/12/29 00:28:54;;;;;;;31.70;14.70;;;;;;;7.05;100.00;100005.88;5030665;28;20022;-90
2021/12/29 00:31:20;;;;;;;28.70;14.52;;;;;;;6.91;100.00;99977.47;5035777;28;20035;-87
2021/12/29 00:33:45;;;;;;;33.20;15.77;;;;;;;7.00;100.00;99994.66;5050453;28;20024;-88
2021/12/29 00:36:11;;;;;;;33.40;16.30;;;;;;;6.97;100.00;99987.72;5011196;28;20030;-88
2021/12/29 00:38:36;;;;;;;34.40;15.50;;;;;;;6.87;100.00;99970.63;5011562;28;20061;-88
2021/12/29 00:41:02;;;;;;;33.40;16.20;;;;;;;7.00;100.00;99994.66;5011374;28;20391;-89
2021/12/29 00:43:27;;;;;;;31.20;15.80;;;;;;;6.97;100.00;99997.47;5011180;28;20100;-89
2021/12/29 00:45:53;;;;;;;33.38;16.30;;;;;;;6.92;100.00;100002.13;5014506;28;20030;-89
2021/12/29 00:48:19;;;;;;;31.33;17.13;;;;;;;6.90;100.00;99996.06;5029200;28;20105;-89
2021/12/29 00:50:46;;;;;;;34.92;16.17;;;;;;;7.08;100.00;100031.34;5030550;28;20422;-90
2021/12/29 00:53:11;;;;;;;33.42;18.35;;;;;;;6.99;100.00;100025.56;5029873;28;20033;-89
2021/12/29 00:55:37;;;;;;;34.78;18.83;;;;;;;7.04;100.00;100035.06;5026974;28;21664;-90
2021/12/29 00:58:04;;;;;;;34.15;17.75;;;;;;;7.07;100.00;100042.88;5029754;28;20387;-90
2021/12/29 01:00:29;;;;;;;35.75;19.02;;;;;;;7.03;100.00;100041.31;5031942;28;20448;-89
2021/12/29 01:02:55;;;;;;;38.35;18.30;;;;;;;6.94;100.00;100042.59;5030036;28;20124;-89
2021/12/29 01:05:20;;;;;;;37.55;18.27;;;;;;;6.98;100.00;100057.38;5025591;28;20025;-90
2021/12/29 01:07:49;;;;;;;38.58;18.83;;;;;;;7.04;100.00;100066.81;5028597;28;20410;-90
2021/12/29 01:10:15;;;;;;;36.55;17.55;;;;;;;7.03;100.00;100065.13;5028245;28;20037;-91
2021/12/29 01:12:47;;;;;;;39.38;19.05;;;;;;;7.05;100.00;100079.09;5029609;28;20419;-91
2021/12/29 01:15:16;;;;;;;34.97;19.20;;;;;;;6.93;100.00;100064.69;5025185;28;20029;-90
2021/12/29 01:17:42;;;;;;;36.28;18.48;;;;;;;7.02;100.00;100081.91;5015696;28;20055;-90
2021/12/29 01:20:07;;;;;;;40.15;19.45;;;;;;;6.87;100.00;100071.13;5028031;28;20391;-89
2021/12/29 01:22:33;;;;;;;37.60;20.25;;;;;;;6.91;100.00;100085.94;5028611;28;20148;-91
2021/12/29 01:24:58;;;;;;;41.08;19.77;;;;;;;7.03;100.00;100104.81;5027518;28;20033;-89
2021/12/29 01:27:23;;;;;;;42.25;19.63;;;;;;;6.87;100.00;100072.94;5029521;28;20034;-89
2021/12/29 01:29:48;;;;;;;41.05;20.23;;;;;;;6.97;100.00;100109.44;5028255;28;20402;-89
2021/12/29 01:32:14;;;;;;;39.33;20.42;;;;;;;6.97;100.00;100117.38;5028362;28;20498;-90
2021/12/29 01:34:39;;;;;;;40.88;19.63;;;;;;;6.93;100.00;100107.84;5029265;28;20029;-90
2021/12/29 01:37:05;;;;;;;38.10;19.13;;;;;;;6.92;100.00;100119.38;5017374;28;20053;-90
2021/12/29 01:39:30;;;;;;;37.40;19.33;;;;;;;6.90;100.00;100128.34;5029629;28;20033;-91
2021/12/29 01:41:58;;;;;;;40.10;19.35;;;;;;;6.88;100.00;100140.75;5028509;28;20386;-91
2021/12/29 01:44:25;;;;;;;38.95;19.10;;;;;;;6.79;100.00;100128.81;5029354;28;20029;-91
2021/12/29 01:46:53;;;;;;;35.03;18.65;;;;;;;6.79;100.00;100147.34;5025523;28;20029;-90
2021/12/29 01:49:19;;;;;;;38.88;18.75;;;;;;;6.72;100.00;100132.69;5026809;28;20037;-89
2021/12/29 01:52:00;;;;;;;40.28;20.05;;;;;;;6.92;100.00;100158.22;5029138;28;20022;-90
2021/12/29 01:54:26;;;;;;;41.53;19.33;;;;;;;6.96;100.00;100167.72;5027684;28;20486;-90
2021/12/29 01:56:56;;;;;;;34.38;17.98;;;;;;;6.87;100.00;100158.44;5026379;28;20030;-92
2021/12/29 01:59:22;;;;;;;40.13;20.52;;;;;;;6.94;100.00;100162.50;5028697;28;20044;-90
2021/12/29 02:01:48;;;;;;;37.05;19.08;;;;;;;6.96;100.00;100179.16;5029192;28;20021;-91
2021/12/29 02:04:14;;;;;;;37.95;18.88;;;;;;;6.85;100.00;100170.84;5027060;28;20426;-91
2021/12/29 02:06:39;;;;;;;33.15;18.42;;;;;;;6.86;100.00;100171.75;5026478;28;20083;-91
2021/12/29 02:09:06;;;;;;;40.55;19.17;;;;;;;6.94;100.00;100190.75;5028656;28;20553;-91
2021/12/29 02:11:37;;;;;;;35.97;18.50;;;;;;;6.94;100.00;100188.97;5027386;28;20037;-91
2021/12/29 02:14:06;;;;;;;38.67;19.40;;;;;;;6.78;100.00;100171.22;5027150;28;20029;-91
2021/12/29 02:16:32;;;;;;;39.95;20.63;;;;;;;6.90;100.00;100187.41;5024461;28;20022;-91
2021/12/29 02:19:00;;;;;;;39.13;20.63;;;;;;;6.90;100.00;100189.19;5026621;28;20037;-92
2021/12/29 02:21:28;;;;;;;44.65;21.35;;;;;;;6.88;100.00;100196.31;5026250;28;20026;-91
2021/12/29 02:24:18;;;;;;;41.22;21.30;;;;;;;6.89;100.00;100205.97;5028792;28;20025;-91
2021/12/29 02:26:40;;;;;;;35.78;20.08;;;;;;;6.83;100.00;100188.59;5027091;28;20433;-91
2021/12/29 02:29:09;;;;;;;43.88;21.02;;;;;;;6.87;100.00;100203.41;5027262;28;20031;-91
2021/12/29 02:31:36;;;;;;;41.05;21.55;;;;;;;6.93;100.00;100207.53;5028657;28;20143;-92
2021/12/29 02:34:02;;;;;;;42.58;21.33;;;;;;;6.77;100.00;100175.63;5026916;28;20025;-92
2021/12/29 02:36:27;;;;;;;46.05;22.88;;;;;;;6.84;100.00;100189.44;5025067;28;20044;-91
2021/12/29 02:38:55;;;;;;;46.72;22.08;;;;;;;6.81;100.00;100192.22;5028563;28;20415;-91
2021/12/29 02:41:23;;;;;;;42.13;22.20;;;;;;;6.72;100.00;100175.00;5029029;28;20125;-91
2021/12/29 02:43:57;;;;;;;43.50;22.25;;;;;;;6.91;100.00;100209.41;5027248;28;20075;-91
2021/12/29 02:46:23;;;;;;;43.80;23.92;;;;;;;6.74;100.00;100189.88;5024935;28;20030;-92
2021/12/29 02:48:59;;;;;;;47.88;22.00;;;;;;;6.88;100.00;100220.97;5028324;28;20103;-92
2021/12/29 02:51:30;;;;;;;47.33;22.48;;;;;;;6.88;100.00;100222.78;5028750;28;20091;-91
2021/12/29 02:53:56;;;;;;;42.80;22.08;;;;;;;6.88;100.00;100215.69;5033417;28;20466;-91
2021/12/29 02:56:26;;;;;;;43.42;22.42;;;;;;;6.79;100.00;100194.09;5032777;28;20033;-91
2021/12/29 02:58:52;;;;;;;50.08;24.17;;;;;;;6.73;100.00;100187.31;5035190;28;20068;-91
2021/12/29 03:01:18;;;;;;;46.47;22.60;;;;;;;6.81;100.00;100205.44;5034391;28;20435;-91
2021/12/29 03:03:43;;;;;;;44.53;22.40;;;;;;;6.81;100.00;100213.38;5034685;28;20108;-90
2021/12/29 03:06:10;;;;;;;45.60;22.92;;;;;;;6.85;100.00;100231.69;5019460;28;20032;-92
2021/12/29 03:08:36;;;;;;;45.42;23.23;;;;;;;6.76;100.00;100218.03;5032435;28;20509;-92
2021/12/29 03:11:02;;;;;;;49.90;23.75;;;;;;;6.80;100.00;100216.97;5034991;28;20037;-92
2021/12/29 03:13:33;;;;;;;45.10;24.17;;;;;;;6.85;100.00;100236.13;5035289;28;20113;-91
2021/12/29 03:15:59;;;;;;;38.92;21.35;;;;;;;6.78;100.00;100232.06;5032211;28;20116;-91
2021/12/29 03:18:25;;;;;;;49.58;23.27;;;;;;;6.66;100.00;100228.19;5034665;28;20041;-91
2021/12/29 03:20:51;;;;;;;44.72;22.50;;;;;;;6.51;100.00;100210.34;5034840;28;20255;-91
2021/12/29 03:23:17;;;;;;;43.70;22.67;;;;;;;6.73;100.00;100256.06;5034562;28;20026;-91
2021/12/29 03:25:43;;;;;;;45.53;22.45;;;;;;;6.72;100.00;100251.69;5022255;28;20026;-91
2021/12/29 03:28:08;;;;;;;46.10;22.83;;;;;;;6.72;100.00;100255.19;5014897;28;20498;-91
2021/12/29 03:30:38;;;;;;;48.03;22.55;;;;;;;6.57;100.00;100239.16;5029212;28;20037;-92
2021/12/29 03:33:05;;;;;;;48.58;22.60;;;;;;;6.80;100.00;100286.59;5033487;28;20030;-91
2021/12/29 03:35:38;;;;;;;45.50;22.00;;;;;;;6.62;100.00;100258.31;5033012;28;20041;-91
2021/12/29 03:38:06;;;;;;;44.55;20.98;;;;;;;6.74;100.00;100279.81;5034284;28;20030;-91
2021/12/29 03:40:35;;;;;;;53.08;21.88;;;;;;;6.69;100.00;100271.22;5034103;28;20394;-91
2021/12/29 03:43:00;;;;;;;47.78;23.25;;;;;;;6.79;100.00;100282.25;5034612;28;20021;-91
2021/12/29 03:45:26;;;;;;;46.05;22.27;;;;;;;6.72;100.00;100286.06;5032877;28;20044;-91
2021/12/29 03:47:51;;;;;;;43.80;22.58;;;;;;;6.78;100.00;100293.75;5034291;28;20056;-92
2021/12/29 03:50:16;;;;;;;47.97;22.63;;;;;;;6.67;100.00;100290.72;5032753;28;20041;-92
2021/12/29 03:52:42;;;;;;;45.30;22.13;;;;;;;6.71;100.00;100287.00;5035217;28;20113;-91
2021/12/29 03:55:07;;;;;;;40.85;20.42;;;;;;;6.78;100.00;100304.34;5033051;28;20021;-91
2021/12/29 03:57:33;;;;;;;48.25;22.08;;;;;;;6.76;100.00;100306.16;5026064;28;20029;-92
2021/12/29 03:59:58;;;;;;;45.08;20.90;;;;;;;6.66;100.00;100297.78;5034514;28;20029;-92
2021/12/29 04:02:24;;;;;;;53.63;22.73;;;;;;;6.66;100.00;100302.22;5034084;28;20438;-92
2021/12/29 04:04:49;;;;;;;49.08;22.45;;;;;;;6.70;100.00;100306.44;5030432;28;20032;-92
2021/12/29 04:07:14;;;;;;;48.97;21.63;;;;;;;6.69;100.00;100321.47;5028789;28;20053;-92
2021/12/29 04:09:39;;;;;;;45.15;21.98;;;;;;;6.65;100.00;100303.16;5032219;28;20049;-92
2021/12/29 04:12:05;;;;;;;55.38;22.40;;;;;;;6.76;100.00;100332.63;5030229;28;20021;-92
2021/12/29 04:14:30;;;;;;;45.78;21.13;;;;;;;6.58;100.00;100306.97;5032227;28;20068;-92
2021/12/29 04:16:57;;;;;;;41.42;21.80;;;;;;;6.54;100.00;100290.38;5030439;28;20025;-92
2021/12/29 04:19:29;;;;;;;47.03;23.50;;;;;;;6.68;100.00;100318.88;5034701;28;20033;-92
2021/12/29 04:21:57;;;;;;;44.22;21.73;;;;;;;6.69;100.00;100325.91;5034743;28;20378;-91
2021/12/29 04:24:24;;;;;;;47.53;21.95;;;;;;;6.72;100.00;100334.53;5030813;28;20418;-92
2021/12/29 04:26:50;;;;;;;46.10;22.50;;;;;;;6.67;100.00;100328.59;5029376;28;20026;-92
2021/12/29 04:29:17;;;;;;;47.90;22.27;;;;;;;6.67;100.00;100322.44;5029925;28;20051;-91
2021/12/29 04:31:43;;;;;;;48.05;21.63;;;;;;;6.71;100.00;100348.69;5046900;28;20026;-92
2021/12/29 04:34:08;;;;;;;48.80;21.58;;;;;;;6.74;100.00;100345.91;5030679;28;20028;-91
2021/12/29 04:36:34;;;;;;;51.67;23.15;;;;;;;6.75;100.00;100362.66;5028911;28;20068;-92
2021/12/29 04:39:01;;;;;;;47.60;21.67;;;;;;;6.72;100.00;100357.47;5029920;28;20507;-92
2021/12/29 04:41:27;;;;;;;46.75;22.35;;;;;;;6.73;100.00;100362.72;5025406;28;20030;-91
2021/12/29 04:43:52;;;;;;;44.88;22.15;;;;;;;6.67;100.00;100346.25;5011402;28;20030;-92
2021/12/29 04:46:19;;;;;;;45.72;21.95;;;;;;;6.62;100.00;100354.38;5019867;28;20056;-92
2021/12/29 04:48:52;;;;;;;46.60;22.05;;;;;;;6.54;100.00;100337.97;5031360;28;20029;-91
2021/12/29 04:51:24;;;;;;;53.35;22.00;;;;;;;6.62;100.00;100364.09;5031079;28;20501;-92
2021/12/29 04:53:50;;;;;;;43.05;21.83;;;;;;;6.68;100.00;100377.03;5029594;28;20060;-92
2021/12/29 04:56:16;;;;;;;45.80;22.67;;;;;;;6.70;100.00;100378.72;5026413;28;20474;-92
2021/12/29 04:58:42;;;;;;;42.13;21.85;;;;;;;6.60;100.00;100373.88;5030681;28;20029;-92
2021/12/29 05:01:07;;;;;;;42.05;22.52;;;;;;;6.64;100.00;100378.97;5029308;28;20040;-92
2021/12/29 05:03:36;;;;;;;50.65;23.85;;;;;;;6.61;100.00;100380.91;5031106;28;20383;-93
2021/12/29 05:08:29;;;;;;;48.00;24.00;;;;;;;6.62;100.00;100382.59;5030634;28;20077;-92
2021/12/29 05:11:00;;;;;;;50.97;23.67;;;;;;;6.63;100.00;100390.47;5031802;28;20457;-92
2021/12/29 05:13:28;;;;;;;48.70;24.45;;;;;;;6.69;100.00;100399.94;5032843;28;20052;-92
2021/12/29 05:15:55;;;;;;;51.70;24.25;;;;;;;6.68;100.00;100395.56;5030368;28;20025;-91
2021/12/29 05:18:21;;;;;;;51.08;23.27;;;;;;;6.64;100.00;100388.69;5031985;28;20045;-91
2021/12/29 05:20:46;;;;;;;46.63;23.80;;;;;;;6.67;100.00;100393.84;5030625;28;20033;-92
2021/12/29 05:23:12;;;;;;;49.45;23.83;;;;;;;6.61;100.00;100386.19;5030115;28;20026;-91
2021/12/29 05:25:37;;;;;;;46.50;24.48;;;;;;;6.61;100.00;100381.75;5028698;28;20025;-91
2021/12/29 05:28:03;;;;;;;44.47;24.00;;;;;;;6.41;100.00;100358.78;5027961;28;20033;-92
2021/12/29 05:30:28;;;;;;;44.72;23.13;;;;;;;6.61;100.00;100391.47;5029005;28;20037;-92
2021/12/29 05:32:54;;;;;;;43.65;22.95;;;;;;;6.63;100.00;100398.41;5030372;28;20160;-92
2021/12/29 05:35:19;;;;;;;50.67;22.90;;;;;;;6.60;100.00;100401.16;5027211;28;20041;-92
2021/12/29 05:37:44;;;;;;;43.10;23.40;;;;;;;6.49;100.00;100398.97;5029328;28;20028;-92
2021/12/29 05:40:11;;;;;;;46.50;23.02;;;;;;;6.60;100.00;100416.16;5025605;28;20535;-92
2021/12/29 05:42:36;;;;;;;47.38;22.83;;;;;;;6.59;100.00;100410.03;5013657;28;20386;-92
2021/12/29 05:45:03;;;;;;;47.60;23.20;;;;;;;6.58;100.00;100418.91;5028886;28;20025;-92
2021/12/29 05:47:29;;;;;;;47.42;24.33;;;;;;;6.51;100.00;100406.84;5028163;28;20064;-92
2021/12/29 05:49:54;;;;;;;44.05;23.55;;;;;;;6.47;100.00;100406.09;5029954;28;20061;-92
2021/12/29 05:52:19;;;;;;;49.38;22.02;;;;;;;6.26;100.00;100372.59;5028544;28;20030;-92
2021/12/29 05:54:45;;;;;;;46.83;22.27;;;;;;;6.46;100.00;100404.38;5027792;28;20022;-92
2021/12/29 05:57:10;;;;;;;41.35;21.95;;;;;;;6.45;100.00;100400.03;5011099;28;20046;-93
2021/12/29 05:59:35;;;;;;;45.83;21.95;;;;;;;6.46;100.00;100399.09;5010282;28;20034;-92
2021/12/29 06:02:01;;;;;;;44.63;21.02;;;;;;;6.56;100.00;100425.16;5019867;28;20056;-91
2021/12/29 06:04:26;;;;;;;40.28;21.02;;;;;;;6.53;100.00;100417.38;5028210;28;20094;-92
2021/12/29 06:06:51;;;;;;;45.20;20.88;;;;;;;6.35;100.00;100385.44;5027587;28;20100;-91
2021/12/29 06:09:17;;;;;;;34.92;19.27;;;;;;;6.54;100.00;100422.59;5028048;28;20052;-91
2021/12/29 06:11:42;;;;;;;38.35;20.13;;;;;;;6.51;100.00;100420.06;5028714;28;20032;-92
2021/12/29 06:14:07;;;;;;;47.25;20.17;;;;;;;6.47;100.00;100414.03;5027300;28;20034;-91
2021/12/29 06:16:32;;;;;;;37.92;19.85;;;;;;;6.49;100.00;100422.78;5012918;28;20447;-91
2021/12/29 06:18:58;;;;;;;44.17;20.33;;;;;;;6.45;100.00;100417.69;5021796;28;20441;-91
2021/12/29 06:21:23;;;;;;;36.97;18.58;;;;;;;6.56;100.00;100438.38;5029540;28;20029;-93
2021/12/29 06:23:48;;;;;;;39.42;18.80;;;;;;;6.29;100.00;100403.34;5028488;28;20087;-91
2021/12/29 06:26:14;;;;;;;39.85;18.42;;;;;;;6.50;100.00;100439.50;5024874;28;20030;-92
2021/12/29 06:28:41;;;;;;;34.05;17.90;;;;;;;6.41;100.00;100439.88;5030344;28;20554;-92
2021/12/29 06:31:07;;;;;;;34.60;17.08;;;;;;;6.51;100.00;100456.22;5028947;28;20116;-92
2021/12/29 06:33:32;;;;;;;37.05;17.42;;;;;;;6.54;100.00;100456.09;5029088;28;20113;-92
2021/12/29 06:35:57;;;;;;;31.50;16.63;;;;;;;6.46;100.00;100451.13;5027594;28;20402;-92
2021/12/29 06:38:23;;;;;;;35.60;16.95;;;;;;;6.57;100.00;100466.56;5027645;28;20025;-91
2021/12/29 06:40:49;;;;;;;33.35;16.40;;;;;;;6.58;100.00;100468.28;5028631;28;20029;-92
2021/12/29 06:43:14;;;;;;;30.85;16.42;;;;;;;6.48;100.00;100459.88;5029336;28;20029;-92
2021/12/29 06:45:39;;;;;;;30.30;15.70;;;;;;;6.51;100.00;100458.84;5020212;28;20041;-91
2021/12/29 06:48:05;;;;;;;31.52;16.00;;;;;;;6.57;100.00;100474.50;5014986;28;20161;-89
2021/12/29 06:50:32;;;;;;;30.02;16.20;;;;;;;6.53;100.00;100467.59;5026811;28;20028;-92
2021/12/29 06:52:57;;;;;;;28.88;15.25;;;;;;;6.54;100.00;100478.13;5028851;28;20029;-91
2021/12/29 06:55:22;;;;;;;38.05;18.08;;;;;;;6.50;100.00;100476.50;5025792;28;20132;-91
2021/12/29 06:57:48;;;;;;;30.83;15.50;;;;;;;6.55;100.00;100487.75;5029072;28;20029;-91
2021/12/29 07:00:14;;;;;;;29.80;16.10;;;;;;;6.55;100.00;100485.13;5024752;28;20032;-91
2021/12/29 07:02:39;;;;;;;30.48;15.30;;;;;;;6.54;100.00;100477.25;5027946;28;20025;-92
2021/12/29 07:05:05;;;;;;;26.88;15.15;;;;;;;6.41;100.00;100451.31;5024408;28;20029;-91
2021/12/29 07:07:30;;;;;;;31.13;16.10;;;;;;;6.40;100.00;100457.53;5021860;28;20045;-92
2021/12/29 07:09:56;;;;;;;34.05;17.75;;;;;;;6.55;100.00;100478.97;5036757;28;20650;-91
2021/12/29 07:12:21;;;;;;;30.90;15.45;;;;;;;6.53;100.00;100478.19;5028380;28;20056;-92
2021/12/29 07:14:47;;;;;;;28.25;15.75;;;;;;;6.49;100.00;100483.59;5027643;28;20084;-91
2021/12/29 07:17:12;;;;;;;26.02;15.15;;;;;;;6.42;100.00;100475.94;5027151;28;20026;-91
2021/12/29 07:19:37;;;;;;;26.15;15.60;;;;;;;6.52;100.00;100492.31;5028588;28;20029;-94
2021/12/29 07:22:04;;;;;;;27.85;15.63;;;;;;;6.53;100.00;100501.97;5026181;28;20467;-92
2021/12/29 07:24:30;;;;;;;27.77;15.05;;;;;;;6.44;100.00;100495.28;5031257;28;20044;-92
2021/12/29 07:26:55;;;;;;;29.17;16.88;;;;;;;6.52;100.00;100503.78;5026394;28;20823;-92
2021/12/29 07:29:21;;;;;;;28.08;15.40;;;;;;;6.46;100.00;100499.56;5027171;28;20067;-91
2021/12/29 07:31:46;;;;;;;29.85;15.57;;;;;;;6.25;100.00;100479.25;5026680;28;20117;-89
2021/12/29 07:34:11;;;;;;;29.10;17.63;;;;;;;6.21;100.00;100477.66;5027415;28;20029;-90
2021/12/29 07:36:36;;;;;;;28.13;16.10;;;;;;;6.51;100.00;100522.31;5024024;28;20041;-90
2021/12/29 07:39:03;;;;;;;26.77;15.43;;;;;;;6.45;100.00;100523.44;5028555;28;20025;-90
2021/12/29 07:41:28;;;;;;;38.10;16.15;;;;;;;6.46;100.00;100525.13;5029848;28;20486;-91
2021/12/29 07:43:54;;;;;;;31.23;16.42;;;;;;;6.47;100.00;100538.28;5031397;28;20056;-91
2021/12/29 07:46:20;;;;;;;26.70;15.90;;;;;;;6.46;100.00;100535.72;5017271;28;20033;-90
2021/12/29 07:48:46;;;;;;;27.90;15.77;;;;;;;6.48;100.00;100533.91;5012239;28;20387;-91
2021/12/29 07:51:11;;;;;;;30.73;16.15;;;;;;;6.39;100.00;100519.22;5011588;28;20026;-91
2021/12/29 07:53:37;;;;;;;24.80;16.05;;;;;;;6.34;100.00;100504.47;5020242;28;20033;-91
2021/12/29 07:56:06;;;;;;;29.83;16.08;;;;;;;6.42;100.00;100529.69;5028640;28;20035;-91
2021/12/29 07:58:32;;;;;;;26.77;15.45;;;;;;;6.41;100.00;100530.59;5028351;28;20037;-91
2021/12/29 08:00:57;;;;;;;27.52;16.00;;;;;;;6.39;100.00;100515.72;5012363;28;20064;-91
2021/12/29 08:03:23;;;;;;;28.92;15.65;;;;;;;6.41;100.00;100522.69;5023976;28;20071;-91
2021/12/29 08:05:48;;;;;;;33.60;16.77;;;;;;;6.41;100.00;100535.03;5020756;28;20446;-91
2021/12/29 08:08:13;;;;;;;32.33;16.50;;;;;;;6.41;100.00;100538.53;5030202;28;20050;-91
2021/12/29 08:10:39;;;;;;;29.27;17.25;;;;;;;6.44;100.00;100533.16;5031970;28;20025;-91
2021/12/29 08:13:06;;;;;;;27.75;17.58;;;;;;;6.45;100.00;100541.94;5030099;28;20021;-92
2021/12/29 08:15:33;;;;;;;26.52;16.08;;;;;;;6.33;100.00;100532.69;5028720;28;20051;-91
2021/12/29 08:18:01;;;;;;;32.20;17.73;;;;;;;6.42;100.00;100547.31;5014989;28;20029;-91
2021/12/29 08:20:27;;;;;;;32.22;17.38;;;;;;;6.38;100.00;100546.59;5025779;28;20039;-91
2021/12/29 08:22:52;;;;;;;30.10;16.85;;;;;;;6.43;100.00;100551.69;5029874;28;20124;-91
2021/12/29 08:25:18;;;;;;;27.30;16.67;;;;;;;6.49;100.00;100554.97;5023513;28;20030;-89
2021/12/29 08:27:43;;;;;;;33.70;15.77;;;;;;;6.47;100.00;100545.38;5027980;28;20025;-90
2021/12/29 08:30:09;;;;;;;28.00;16.30;;;;;;;6.46;100.00;100543.66;5031284;28;20116;-89
2021/12/29 08:32:34;;;;;;;29.92;16.60;;;;;;;6.44;100.00;100542.88;5031048;28;20489;-90
2021/12/29 08:35:00;;;;;;;28.85;16.67;;;;;;;6.43;100.00;100539.31;5028985;28;20032;-90
2021/12/29 08:37:25;;;;;;;27.40;16.15;;;;;;;6.47;100.00;100551.50;5013573;28;20037;-89
2021/12/29 08:39:50;;;;;;;28.33;16.88;;;;;;;6.47;100.00;100548.88;5027444;28;20482;-89
2021/12/29 08:42:15;;;;;;;31.20;16.23;;;;;;;6.43;100.00;100547.25;5026248;28;20087;-90
2021/12/29 08:44:41;;;;;;;33.28;16.63;;;;;;;6.39;100.00;100534.22;5017345;28;20457;-90
2021/12/29 08:47:08;;;;;;;27.50;16.20;;;;;;;6.35;100.00;100522.91;5014048;28;20087;-88
2021/12/29 08:49:34;;;;;;;31.95;16.80;;;;;;;6.44;100.00;100543.72;5026721;28;20095;-87
2021/12/29 08:51:59;;;;;;;27.35;16.85;;;;;;;6.46;100.00;100544.50;5026771;28;20541;-87
2021/12/29 08:54:26;;;;;;;28.38;16.27;;;;;;;6.41;100.00;100535.91;5024629;28;20029;-87
2021/12/29 08:56:53;;;;;;;31.55;16.15;;;;;;;6.52;100.00;100546.06;5024305;28;20151;-86
2021/12/29 08:59:19;;;;;;;30.77;16.77;;;;;;;6.52;100.00;100554.00;5026288;28;20469;-86
2021/12/29 09:01:44;;;;;;;27.20;15.90;;;;;;;6.53;100.00;100557.50;5022164;28;20453;-85
2021/12/29 09:04:09;;;;;;;30.00;17.27;;;;;;;6.48;100.00;100555.91;5020051;28;20029;-87
2021/12/29 09:06:35;;;;;;;24.63;16.05;;;;;;;6.53;100.00;100561.00;5024932;28;20044;-85
2021/12/29 09:09:00;;;;;;;23.63;14.82;;;;;;;6.52;100.00;100551.38;5026016;28;20767;-86
2021/12/29 09:11:25;;;;;;;24.48;15.98;;;;;;;6.53;100.00;100550.44;5024890;28;20033;-90
2021/12/29 09:13:53;;;;;;;28.77;15.95;;;;;;;6.56;100.00;100546.78;5021071;28;20129;-88
2021/12/29 09:16:19;;;;;;;27.33;16.20;;;;;;;6.52;100.00;100532.84;5022711;28;20033;-89
2021/12/29 09:18:44;;;;;;;27.67;16.02;;;;;;;6.56;100.00;100533.56;5026584;28;20032;-88
2021/12/29 09:21:14;;;;;;;27.98;16.73;;;;;;;6.62;100.00;100544.78;5028428;28;20164;-89
2021/12/29 09:23:40;;;;;;;24.45;15.95;;;;;;;6.65;100.00;100557.88;5027733;28;20108;-90
2021/12/29 09:26:06;;;;;;;27.80;15.63;;;;;;;6.69;100.00;100548.06;5012170;28;20575;-88
2021/12/29 09:28:32;;;;;;;24.48;15.73;;;;;;;6.69;100.00;100542.75;5019646;28;20061;-89
2021/12/29 09:30:57;;;;;;;24.05;15.77;;;;;;;6.70;100.00;100534.75;5027664;28;20025;-88
2021/12/29 09:33:23;;;;;;;29.33;16.27;;;;;;;6.80;100.00;100537.88;5025571;28;20033;-89
2021/12/29 09:35:52;;;;;;;23.00;15.50;;;;;;;6.83;100.00;100537.78;5022142;28;20029;-88
2021/12/29 09:38:19;;;;;;;33.33;15.55;;;;;;;6.90;100.00;100536.63;5025255;28;20033;-89
2021/12/29 09:40:46;;;;;;;26.80;15.10;;;;;;;7.03;100.00;100533.47;5026496;28;20056;-87
2021/12/29 09:43:12;;;;;;;22.52;14.13;;;;;;;7.08;100.00;100534.13;5025553;28;20033;-88
2021/12/29 09:45:40;;;;;;;21.48;13.18;;;;;;;7.08;100.00;100542.06;5015944;28;21601;-90
2021/12/29 09:48:05;;;;;;;19.20;12.95;;;;;;;7.00;100.00;100537.09;5024506;28;20546;-92
2021/12/29 09:50:31;;;;;;;22.55;12.68;;;;;;;6.94;100.00;100524.13;5025306;28;20049;-90
2021/12/29 09:52:57;;;;;;;17.65;12.23;;;;;;;6.94;100.00;100521.47;5020431;28;20022;-91
2021/12/29 09:55:24;;;;;;;18.58;12.15;;;;;;;7.02;100.00;100518.50;5024907;28;20024;-91
2021/12/29 09:57:52;;;;;;;20.65;11.77;;;;;;;7.12;100.00;100525.13;5025110;28;20067;-92
2021/12/29 10:00:30;;;;;;;19.92;12.45;;;;;;;7.13;100.00;100518.91;5023179;28;20029;-91
2021/12/29 10:02:58;;;;;;;21.65;12.18;;;;;;;7.13;100.00;100516.28;5023313;28;20128;-90
2021/12/29 10:05:26;;;;;;;20.63;12.30;;;;;;;7.12;100.00;100526.00;5024667;28;20041;-90
2021/12/29 10:08:07;;;;;;;24.80;12.75;;;;;;;7.11;100.00;100524.28;5014793;28;20037;-91
2021/12/29 10:10:35;;;;;;;20.25;11.82;;;;;;;7.13;100.00;100522.41;5028604;28;20056;-91
2021/12/29 10:13:02;;;;;;;20.05;12.13;;;;;;;7.05;100.00;100513.06;5028524;28;20029;-91
2021/12/29 10:15:34;;;;;;;20.25;11.48;;;;;;;7.22;100.00;100542.34;5026972;28;20499;-90
2021/12/29 10:18:05;;;;;;;22.77;11.10;;;;;;;7.20;100.00;100533.63;5027234;28;20116;-92
2021/12/29 10:20:30;;;;;;;18.92;10.38;;;;;;;7.14;100.00;100505.59;5029681;28;20091;-92
2021/12/29 10:22:58;;;;;;;16.90;10.88;;;;;;;7.24;100.00;100530.78;5026068;28;20030;-91
2021/12/29 10:25:24;;;;;;;20.88;10.80;;;;;;;7.29;100.00;100527.94;5026747;28;20107;-89
2021/12/29 10:27:51;;;;;;;18.67;10.75;;;;;;;7.33;100.00;100521.59;5029132;28;20071;-90
2021/12/29 10:30:28;;;;;;;20.92;10.20;;;;;;;7.44;100.00;100514.06;5028459;28;20354;-92
2021/12/29 10:32:56;;;;;;;13.90;9.20;;;;;;;7.54;100.00;100508.34;5026248;28;20033;-89
2021/12/29 10:35:32;;;;;;;15.80;8.93;;;;;;;7.54;100.00;100492.47;5026004;28;20035;-89
2021/12/29 10:38:22;;;;;;;18.65;9.73;;;;;;;7.62;100.00;100507.09;5009457;28;20029;-89
2021/12/29 10:40:49;;;;;;;19.65;9.40;;;;;;;7.47;100.00;100466.22;5008047;28;20018;-90
2021/12/29 10:43:15;;;;;;;18.80;9.57;;;;;;;7.55;100.00;100476.50;5017589;28;20499;-91
2021/12/29 10:45:42;;;;;;;20.17;9.00;;;;;;;7.62;100.00;100493.00;5026127;28;20033;-90
2021/12/29 10:48:28;;;;;;;14.77;8.50;;;;;;;7.62;100.00;100506.22;5028542;28;20057;-89
2021/12/29 10:51:08;;;;;;;20.10;8.63;;;;;;;7.67;100.00;100510.38;5028401;28;20025;-90
2021/12/29 10:53:36;;;;;;;16.33;8.02;;;;;;;7.67;100.00;100491.00;5028319;28;20119;-89
2021/12/29 10:56:02;;;;;;;18.45;8.63;;;;;;;7.70;100.00;100477.63;5019222;28;20034;-91
2021/12/29 10:58:32;;;;;;;22.30;8.18;;;;;;;7.82;100.00;100494.75;5008212;28;20030;-91
2021/12/29 11:01:13;;;;;;;14.00;7.97;;;;;;;7.80;100.00;100508.06;5021146;28;20568;-89
2021/12/29 11:03:57;;;;;;;13.45;7.78;;;;;;;7.77;100.00;100504.69;5028048;28;20026;-89
2021/12/29 11:06:24;;;;;;;17.48;7.88;;;;;;;7.75;100.00;100504.75;5015936;28;20037;-92
2021/12/29 11:08:55;;;;;;;17.08;7.78;;;;;;;7.72;100.00;100512.81;5020549;28;20120;-90
2021/12/29 11:11:25;;;;;;;19.27;7.55;;;;;;;7.72;100.00;100534.88;5026252;28;20419;-90